GGOTH EGJB-EGJB

Flight info

Callsign GGOTH
Flight time 0h 4m
Altitude 3000
Route BASIK
Aircraft P28A/L-SDFRY/C

Departure

Time 2026-04-20 16:41
Airport Guernsey Airport (EGJB)

Arrival

Time 2026-04-20 16:45
Airport Guernsey Airport (EGJB)
Time Latitude Longitude Altitude Speed Heading
2026-04-20 16:21 49.43296 -2.60224 329 ft 0 kts 75°
2026-04-20 16:36 49.43297 -2.60217 330 ft 6 kts 69°
2026-04-20 16:36 49.43330 -2.60252 332 ft 7 kts 269°
2026-04-20 16:36 49.43329 -2.60362 329 ft 15 kts 262°
2026-04-20 16:36 49.43325 -2.60547 325 ft 18 kts 269°
2026-04-20 16:37 49.43342 -2.60737 321 ft 18 kts 281°
2026-04-20 16:37 49.43364 -2.60945 316 ft 21 kts 271°
2026-04-20 16:37 49.43355 -2.61154 311 ft 18 kts 256°
2026-04-20 16:37 49.43363 -2.61209 310 ft 0 kts 355°
2026-04-20 16:40 49.43362 -2.61240 309 ft 14 kts 264°
2026-04-20 16:40 49.43468 -2.61297 307 ft 14 kts 88°
2026-04-20 16:40 49.43474 -2.60915 332 ft 59 kts 83°
2026-04-20 16:41 49.43506 -2.60205 511 ft 72 kts 83°
2026-04-20 16:41 49.43547 -2.59398 733 ft 76 kts 79°
2026-04-20 16:41 49.43619 -2.58581 976 ft 82 kts 78°
2026-04-20 16:41 49.43419 -2.57711 1051 ft 107 kts 142°
2026-04-20 16:42 49.42605 -2.57663 1001 ft 119 kts 176°
2026-04-20 16:42 49.41810 -2.57717 957 ft 112 kts 176°
2026-04-20 16:42 49.41163 -2.58290 958 ft 114 kts 244°
2026-04-20 16:42 49.41060 -2.59445 982 ft 107 kts 270°
2026-04-20 16:43 49.41021 -2.60590 946 ft 110 kts 272°
2026-04-20 16:43 49.40999 -2.61762 956 ft 109 kts 273°
2026-04-20 16:43 49.40989 -2.62922 986 ft 109 kts 274°
2026-04-20 16:43 49.41141 -2.64001 954 ft 101 kts 321°
2026-04-20 16:44 49.41749 -2.64274 957 ft 90 kts
2026-04-20 16:44 49.42349 -2.64356 968 ft 87 kts
2026-04-20 16:44 49.42936 -2.64389 883 ft 82 kts
2026-04-20 16:44 49.43374 -2.64121 790 ft 62 kts 58°
2026-04-20 16:45 49.43388 -2.63457 623 ft 60 kts 80°
2026-04-20 16:45 49.43430 -2.62851 550 ft 57 kts 82°
2026-04-20 16:45 49.43444 -2.62225 483 ft 59 kts 81°
2026-04-20 16:45 49.43456 -2.61676 395 ft 48 kts 78°
2026-04-20 16:46 49.43472 -2.61174 336 ft 46 kts 78°
2026-04-20 16:46 49.43482 -2.60791 319 ft 38 kts 86°
2026-04-20 16:46 49.43499 -2.60214 427 ft 64 kts 82°
2026-04-20 16:46 49.43529 -2.59501 656 ft 66 kts 80°
2026-04-20 16:47 49.43561 -2.58783 886 ft 69 kts 82°
2026-04-20 16:47 49.43512 -2.58019 1065 ft 85 kts 109°
2026-04-20 16:47 49.42906 -2.57592 1058 ft 112 kts 176°
2026-04-20 16:47 49.42124 -2.57687 1079 ft 111 kts 178°
2026-04-20 16:48 49.41381 -2.57822 1046 ft 116 kts 197°
2026-04-20 16:48 49.41042 -2.58859 1035 ft 112 kts 269°
2026-04-20 16:48 49.40979 -2.60039 1027 ft 110 kts 271°
2026-04-20 16:48 49.40938 -2.61216 1014 ft 110 kts 273°
2026-04-20 16:49 49.40835 -2.62359 1063 ft 107 kts 262°
2026-04-20 16:49 49.40964 -2.63415 1025 ft 100 kts 330°
2026-04-20 16:49 49.41572 -2.63754 996 ft 93 kts 355°
2026-04-20 16:49 49.42178 -2.63984 855 ft 87 kts 355°
2026-04-20 16:50 49.42697 -2.64190 782 ft 73 kts 360°
2026-04-20 16:50 49.43164 -2.64307 691 ft 64 kts 359°
2026-04-20 16:50 49.43446 -2.63922 613 ft 67 kts 86°
2026-04-20 16:50 49.43445 -2.63235 594 ft 65 kts 84°
2026-04-20 16:51 49.43451 -2.62553 512 ft 62 kts 82°
2026-04-20 16:51 49.43461 -2.61903 436 ft 62 kts 82°
2026-04-20 16:51 49.43471 -2.61249 342 ft 52 kts 83°
2026-04-20 16:51 49.43479 -2.60851 317 ft 28 kts 87°
2026-04-20 16:52 49.43489 -2.60314 382 ft 65 kts 82°
2026-04-20 16:52 49.43512 -2.59648 669 ft 63 kts 82°
2026-04-20 16:52 49.43533 -2.58928 890 ft 70 kts 81°
2026-04-20 16:52 49.43545 -2.58208 1192 ft 74 kts 96°
2026-04-20 16:53 49.43089 -2.57556 1153 ft 103 kts 153°
2026-04-20 16:53 49.42338 -2.57493 1135 ft 110 kts 175°
2026-04-20 16:53 49.41567 -2.57541 1129 ft 114 kts 178°
2026-04-20 16:53 49.40946 -2.58305 1094 ft 122 kts 251°
2026-04-20 16:54 49.40857 -2.59563 1112 ft 118 kts 270°
2026-04-20 16:54 49.40824 -2.60343 1089 ft 120 kts 270°
2026-04-20 16:54 49.40772 -2.61633 1058 ft 121 kts 269°
2026-04-20 16:54 49.40713 -2.62926 1044 ft 122 kts 271°
2026-04-20 16:55 49.40861 -2.64134 1025 ft 111 kts 321°
2026-04-20 16:55 49.41524 -2.64458 1034 ft 96 kts
2026-04-20 16:55 49.42156 -2.64575 885 ft 88 kts
2026-04-20 16:55 49.42711 -2.64651 799 ft 75 kts
2026-04-20 16:56 49.43212 -2.64643 701 ft 72 kts 24°
2026-04-20 16:56 49.43411 -2.64012 663 ft 70 kts 81°
2026-04-20 16:56 49.43424 -2.63274 595 ft 64 kts 82°
2026-04-20 16:56 49.43439 -2.62657 512 ft 52 kts 81°
2026-04-20 16:57 49.43455 -2.62098 461 ft 53 kts 80°
2026-04-20 16:57 49.43464 -2.61496 385 ft 59 kts 83°
2026-04-20 16:57 49.43477 -2.60914 316 ft 45 kts 86°
2026-04-20 16:57 49.43468 -2.60669 321 ft 15 kts 144°
2026-04-20 16:58 49.43382 -2.60654 322 ft 0 kts 182°
2026-04-20 16:58 49.43358 -2.60648 323 ft 10 kts 164°
2026-04-20 16:58 49.43326 -2.60524 326 ft 17 kts 89°
2026-04-20 16:59 49.43332 -2.60316 330 ft 22 kts 88°
2026-04-20 16:59 49.43298 -2.60193 330 ft 12 kts 131°
2026-04-20 16:59 49.43297 -2.60177 328 ft 0 kts 61°